Time;durP1;ratioP1;P1;durP2;ratioP2;P2;SDS_P1;SDS_P2;PMS_P1;PMS_P2;Temp;Humidity;BMP_temperature;BMP_pressure;BME280_temperature;BME280_humidity;BME280_pressure;Samples;Min_cycle;Max_cycle;Signal;HPM_P1;HPM_P2
2023/01/28 00:00:54;;;;;;;32.67;17.13;;;;;;;;;;4996841;28;20217;-60
2023/01/28 00:03:25;;;;;;;60.73;24.60;;;;;;;;;;4996762;28;20229;-60
2023/01/28 00:06:03;;;;;;;54.70;23.77;;;;;;;;;;4996424;28;20234;-60
2023/01/28 00:08:32;;;;;;;49.27;21.97;;;;;;;;;;4996991;28;20206;-60
2023/01/28 00:11:01;;;;;;;45.40;20.13;;;;;;;;;;4996324;28;20631;-60
2023/01/28 00:13:29;;;;;;;45.50;19.40;;;;;;;;;;4996137;28;20213;-60
2023/01/28 00:16:03;;;;;;;43.07;18.80;;;;;;;;;;4996091;28;20317;-60
2023/01/28 00:18:31;;;;;;;44.37;20.17;;;;;;;;;;4996415;28;20537;-60
2023/01/28 00:20:59;;;;;;;41.37;19.13;;;;;;;;;;4996229;28;20671;-60
2023/01/28 00:23:28;;;;;;;40.57;18.50;;;;;;;;;;4996107;28;20722;-60
2023/01/28 00:25:59;;;;;;;68.63;24.93;;;;;;;;;;4996448;28;20230;-61
2023/01/28 00:28:27;;;;;;;57.50;22.90;;;;;;;;;;4996562;28;20217;-60
2023/01/28 00:30:54;;;;;;;44.47;19.80;;;;;;;;;;4995972;28;20198;-60
2023/01/28 00:33:21;;;;;;;46.00;20.90;;;;;;;;;;4996225;28;20286;-60
2023/01/28 00:35:59;;;;;;;45.73;21.77;;;;;;;;;;4995350;28;20213;-60
2023/01/28 00:38:27;;;;;;;47.37;21.70;;;;;;;;;;4996554;28;20239;-60
2023/01/28 00:40:54;;;;;;;46.57;21.63;;;;;;;;;;4995279;28;20639;-60
2023/01/28 00:43:22;;;;;;;50.77;21.83;;;;;;;;;;4995052;28;20202;-58
2023/01/28 00:45:49;;;;;;;45.03;21.43;;;;;;;;;;4995790;28;20229;-61
2023/01/28 00:48:16;;;;;;;43.47;21.30;;;;;;;;;;4995247;28;20221;-60
2023/01/28 00:50:45;;;;;;;45.83;20.50;;;;;;;;;;4996433;28;20217;-60
2023/01/28 00:53:13;;;;;;;43.97;20.50;;;;;;;;;;4995967;28;20213;-60
2023/01/28 00:55:40;;;;;;;43.90;19.93;;;;;;;;;;4994974;28;20268;-60
2023/01/28 00:58:07;;;;;;;43.90;20.77;;;;;;;;;;4995133;28;20678;-60
2023/01/28 01:00:35;;;;;;;42.90;19.67;;;;;;;;;;4994997;28;20268;-60
2023/01/28 01:03:02;;;;;;;40.80;19.77;;;;;;;;;;4996010;28;20202;-60
2023/01/28 01:05:29;;;;;;;46.60;20.63;;;;;;;;;;4995494;28;20673;-60
2023/01/28 01:07:56;;;;;;;51.00;21.87;;;;;;;;;;4995182;28;20221;-60
2023/01/28 01:10:23;;;;;;;50.57;21.83;;;;;;;;;;4996016;28;20217;-60
2023/01/28 01:12:51;;;;;;;51.80;22.80;;;;;;;;;;5011012;28;20631;-60
2023/01/28 01:15:19;;;;;;;46.80;22.57;;;;;;;;;;4995877;28;20206;-60
2023/01/28 01:17:48;;;;;;;45.30;22.10;;;;;;;;;;4995989;28;20216;-60
2023/01/28 01:20:24;;;;;;;51.50;23.83;;;;;;;;;;4995640;28;20268;-60
2023/01/28 01:22:52;;;;;;;47.83;22.20;;;;;;;;;;4995571;28;20356;-60
2023/01/28 01:25:19;;;;;;;47.77;22.67;;;;;;;;;;4995925;28;20233;-60
2023/01/28 01:27:48;;;;;;;55.17;22.93;;;;;;;;;;4999748;28;20234;-60
2023/01/28 01:30:17;;;;;;;56.77;23.43;;;;;;;;;;4998580;28;20197;-61
2023/01/28 01:32:44;;;;;;;47.87;23.43;;;;;;;;;;4999581;28;20202;-61
2023/01/28 01:35:11;;;;;;;49.73;22.47;;;;;;;;;;4998679;28;20213;-60
2023/01/28 01:37:39;;;;;;;54.90;23.83;;;;;;;;;;4998276;28;20213;-60
2023/01/28 01:40:08;;;;;;;55.47;25.00;;;;;;;;;;5014607;28;20253;-60
2023/01/28 01:42:35;;;;;;;56.17;24.93;;;;;;;;;;4999398;28;20202;-60
2023/01/28 01:45:16;;;;;;;52.33;24.67;;;;;;;;;;4999163;28;20737;-61
2023/01/28 01:48:00;;;;;;;53.33;23.10;;;;;;;;;;4999427;28;20205;-59
2023/01/28 01:50:55;;;;;;;50.90;24.27;;;;;;;;;;4982368;28;20650;-59
2023/01/28 01:53:24;;;;;;;47.40;21.87;;;;;;;;;;4992608;28;20206;-59
2023/01/28 01:55:53;;;;;;;51.13;23.53;;;;;;;;;;4998125;28;20276;-59
2023/01/28 01:58:23;;;;;;;58.63;24.27;;;;;;;;;;4982255;28;20198;-58
2023/01/28 02:00:50;;;;;;;55.57;24.50;;;;;;;;;;4998390;28;20195;-59
2023/01/28 02:03:22;;;;;;;50.50;23.97;;;;;;;;;;4998414;28;20248;-59
2023/01/28 02:05:50;;;;;;;50.43;24.17;;;;;;;;;;4998202;28;20229;-59
2023/01/28 02:08:20;;;;;;;53.43;24.20;;;;;;;;;;4998720;28;20209;-59
2023/01/28 02:11:05;;;;;;;50.90;23.73;;;;;;;;;;4999006;28;20201;-59
2023/01/28 02:13:35;;;;;;;51.53;23.77;;;;;;;;;;4982634;28;20277;-59
2023/01/28 02:16:03;;;;;;;55.13;22.97;;;;;;;;;;4997802;28;20640;-60
2023/01/28 02:18:31;;;;;;;55.30;24.30;;;;;;;;;;4997977;28;20205;-60
2023/01/28 02:21:39;;;;;;;52.53;23.37;;;;;;;;;;4997877;28;20202;-59
2023/01/28 02:24:44;;;;;;;56.43;24.07;;;;;;;;;;5013779;28;20216;-59
2023/01/28 02:27:34;;;;;;;53.37;23.93;;;;;;;;;;4964748;28;20214;-59
2023/01/28 02:30:22;;;;;;;54.30;24.47;;;;;;;;;;4987309;28;20274;-59
2023/01/28 02:32:55;;;;;;;62.20;25.17;;;;;;;;;;4978900;28;20206;-59
2023/01/28 02:36:20;;;;;;;55.77;23.20;;;;;;;;;;4994644;28;20395;-59
2023/01/28 02:38:49;;;;;;;56.00;24.67;;;;;;;;;;4888270;29;20209;-59
2023/01/28 02:41:26;;;;;;;55.60;25.70;;;;;;;;;;4919903;29;20213;-60
2023/01/28 02:43:54;;;;;;;57.90;24.43;;;;;;;;;;4945158;28;20218;-60
2023/01/28 02:49:29;;;;;;;54.10;23.47;;;;;;;;;;4978887;28;20215;-60
2023/01/28 02:52:06;;;;;;;53.83;25.03;;;;;;;;;;4977836;28;20613;-59
2023/01/28 02:55:08;;;;;;;54.40;25.10;;;;;;;;;;4993569;28;20217;-60
2023/01/28 02:58:06;;;;;;;57.67;25.90;;;;;;;;;;4994148;28;20202;-59
2023/01/28 03:00:53;;;;;;;59.43;26.00;;;;;;;;;;4977955;28;20219;-60
2023/01/28 03:03:26;;;;;;;66.00;28.37;;;;;;;;;;4977670;28;20254;-60
2023/01/28 03:06:06;;;;;;;65.77;29.37;;;;;;;;;;4978119;28;20210;-59
2023/01/28 03:37:36;;;;;;;58.67;28.10;;;;;;;;;;4905566;29;20196;-60
2023/01/28 03:40:13;;;;;;;60.00;27.60;;;;;;;;;;4902947;29;20720;-60
2023/01/28 03:42:42;;;;;;;61.83;28.43;;;;;;;;;;4918513;29;20209;-60
2023/01/28 03:45:22;;;;;;;60.07;28.90;;;;;;;;;;4918937;29;20236;-60
2023/01/28 03:47:49;;;;;;;60.43;28.20;;;;;;;;;;4933745;28;20207;-60
2023/01/28 03:50:16;;;;;;;61.93;28.53;;;;;;;;;;4991823;28;20656;-60
2023/01/28 03:52:53;;;;;;;61.93;30.07;;;;;;;;;;4976522;28;20509;-60
2023/01/28 03:55:26;;;;;;;62.90;28.27;;;;;;;;;;4992830;28;20643;-60
2023/01/28 03:57:53;;;;;;;64.13;28.10;;;;;;;;;;4977533;28;20256;-60
2023/01/28 04:00:22;;;;;;;60.33;27.17;;;;;;;;;;4992766;28;20195;-59
2023/01/28 04:02:49;;;;;;;57.40;27.03;;;;;;;;;;4992597;28;20221;-51
2023/01/28 04:05:19;;;;;;;62.90;27.90;;;;;;;;;;4992749;28;20313;-60
2023/01/28 04:07:50;;;;;;;60.70;28.23;;;;;;;;;;4976691;28;20526;-60
2023/01/28 04:10:37;;;;;;;57.10;26.77;;;;;;;;;;4977433;28;20213;-60
2023/01/28 04:13:15;;;;;;;64.77;29.10;;;;;;;;;;4992478;28;20213;-60
2023/01/28 04:15:44;;;;;;;61.63;28.93;;;;;;;;;;4976345;28;20211;-60
2023/01/28 04:18:11;;;;;;;62.33;28.80;;;;;;;;;;4976139;28;20230;-60
2023/01/28 04:20:39;;;;;;;60.93;30.37;;;;;;;;;;4976243;28;20280;-60
2023/01/28 04:23:06;;;;;;;61.80;27.63;;;;;;;;;;4977206;28;20285;-60
2023/01/28 04:25:34;;;;;;;67.13;30.50;;;;;;;;;;4976185;28;20226;-60
2023/01/28 04:28:05;;;;;;;65.83;30.30;;;;;;;;;;4977206;28;20203;-60
2023/01/28 04:30:33;;;;;;;64.33;30.07;;;;;;;;;;4992031;28;20229;-60
2023/01/28 04:33:33;;;;;;;64.47;29.33;;;;;;;;;;4976116;28;20217;-57
2023/01/28 04:36:14;;;;;;;63.87;29.43;;;;;;;;;;4992009;28;20643;-59
2023/01/28 04:39:04;;;;;;;63.37;29.27;;;;;;;;;;4976280;28;20225;-58
2023/01/28 04:41:37;;;;;;;68.77;29.33;;;;;;;;;;4977267;28;20191;-58
2023/01/28 04:44:12;;;;;;;64.23;28.73;;;;;;;;;;4975901;28;20269;-58
2023/01/28 04:46:54;;;;;;;57.67;26.97;;;;;;;;;;4991604;28;20683;-58
2023/01/28 04:49:47;;;;;;;56.70;26.37;;;;;;;;;;4975656;28;20297;-58
2023/01/28 04:52:44;;;;;;;55.47;25.37;;;;;;;;;;4975142;28;20210;-59
2023/01/28 04:55:36;;;;;;;50.43;23.87;;;;;;;;;;4976026;28;20206;-58
2023/01/28 04:58:04;;;;;;;56.40;25.73;;;;;;;;;;4991779;28;20210;-58
2023/01/28 05:00:32;;;;;;;53.50;24.07;;;;;;;;;;4975379;28;20235;-58
2023/01/28 05:03:00;;;;;;;55.67;24.47;;;;;;;;;;4999851;28;20217;-59
2023/01/28 05:05:27;;;;;;;56.27;24.20;;;;;;;;;;4978729;28;20222;-58
2023/01/28 05:07:58;;;;;;;52.50;23.33;;;;;;;;;;4994665;28;20257;-58
2023/01/28 05:10:25;;;;;;;46.23;23.53;;;;;;;;;;4996627;28;20201;-58
2023/01/28 05:12:54;;;;;;;51.20;23.27;;;;;;;;;;4998968;28;20646;-58
2023/01/28 05:15:21;;;;;;;47.53;21.53;;;;;;;;;;4985781;28;20214;-58
2023/01/28 05:17:53;;;;;;;47.93;21.30;;;;;;;;;;4975321;28;20507;-59
2023/01/28 05:20:21;;;;;;;43.80;20.87;;;;;;;;;;4974675;28;20290;-59
2023/01/28 05:22:49;;;;;;;48.23;22.40;;;;;;;;;;4975285;28;20277;-58
2023/01/28 05:25:26;;;;;;;47.67;23.50;;;;;;;;;;4975365;28;20261;-58
2023/01/28 05:27:54;;;;;;;42.43;20.50;;;;;;;;;;4975313;28;20230;-58
2023/01/28 05:30:21;;;;;;;44.53;22.07;;;;;;;;;;4975231;28;20229;-58
2023/01/28 05:32:48;;;;;;;41.90;20.63;;;;;;;;;;4975622;28;20202;-58
2023/01/28 05:35:20;;;;;;;47.90;22.43;;;;;;;;;;4991261;28;20330;-58
2023/01/28 05:37:48;;;;;;;42.83;21.40;;;;;;;;;;4974917;28;20639;-58
2023/01/28 05:40:16;;;;;;;49.63;21.70;;;;;;;;;;4975114;28;20241;-58
2023/01/28 05:42:44;;;;;;;48.97;24.00;;;;;;;;;;4991090;28;20206;-58
2023/01/28 05:45:30;;;;;;;53.93;24.47;;;;;;;;;;4976031;28;20219;-57
2023/01/28 05:48:27;;;;;;;53.37;24.77;;;;;;;;;;4954591;29;20215;-58
2023/01/28 05:51:13;;;;;;;57.37;25.43;;;;;;;;;;4954602;29;20203;-58
2023/01/28 05:53:44;;;;;;;54.93;25.43;;;;;;;;;;4954833;29;20649;-58
2023/01/28 05:56:11;;;;;;;54.47;26.27;;;;;;;;;;4954529;29;20544;-58
2023/01/28 05:58:40;;;;;;;54.37;26.57;;;;;;;;;;4938509;29;20219;-58
2023/01/28 06:01:08;;;;;;;50.70;24.30;;;;;;;;;;4954735;29;20239;-58
2023/01/28 06:03:40;;;;;;;47.13;24.70;;;;;;;;;;4938377;29;20246;-58
2023/01/28 06:06:07;;;;;;;55.07;26.20;;;;;;;;;;4954303;29;20230;-57
2023/01/28 06:08:36;;;;;;;50.03;24.80;;;;;;;;;;4954412;29;20286;-57
2023/01/28 06:11:03;;;;;;;54.87;26.40;;;;;;;;;;4954312;28;20500;-59
2023/01/28 06:13:34;;;;;;;54.83;25.93;;;;;;;;;;4956865;28;20211;-58
2023/01/28 06:16:20;;;;;;;53.63;25.70;;;;;;;;;;4958042;28;20314;-58
2023/01/28 06:19:10;;;;;;;54.70;25.50;;;;;;;;;;4958144;29;20219;-58
2023/01/28 06:21:37;;;;;;;51.90;25.40;;;;;;;;;;4957886;29;20204;-58
2023/01/28 06:24:05;;;;;;;51.93;24.40;;;;;;;;;;4945167;28;20218;-58
2023/01/28 06:26:32;;;;;;;47.73;23.93;;;;;;;;;;4978173;28;20226;-57
2023/01/28 06:28:59;;;;;;;54.40;25.50;;;;;;;;;;5001068;28;20190;-59
2023/01/28 06:31:26;;;;;;;55.57;26.03;;;;;;;;;;5017583;28;20293;-59
2023/01/28 06:33:54;;;;;;;57.07;25.33;;;;;;;;;;5017592;28;20205;-59
2023/01/28 06:36:21;;;;;;;61.23;26.03;;;;;;;;;;5017571;28;20209;-58
2023/01/28 06:38:48;;;;;;;57.10;26.17;;;;;;;;;;5017699;28;20275;-51
2023/01/28 06:41:15;;;;;;;54.90;26.50;;;;;;;;;;5017808;28;20236;-49
2023/01/28 06:43:42;;;;;;;50.50;25.87;;;;;;;;;;5017410;28;20201;-60
2023/01/28 06:46:09;;;;;;;54.80;26.07;;;;;;;;;;5017470;28;20228;-51
2023/01/28 06:48:37;;;;;;;60.50;26.50;;;;;;;;;;5017739;28;20212;-60
2023/01/28 06:51:04;;;;;;;57.87;27.33;;;;;;;;;;5008007;28;20244;-55
2023/01/28 06:53:31;;;;;;;56.03;27.77;;;;;;;;;;4997885;28;20262;-59
2023/01/28 06:55:58;;;;;;;52.47;26.17;;;;;;;;;;4998330;28;20206;-56
2023/01/28 06:58:25;;;;;;;55.10;26.87;;;;;;;;;;4997701;28;20214;-59
2023/01/28 07:00:53;;;;;;;51.40;26.00;;;;;;;;;;4998057;28;20291;-59
2023/01/28 07:03:20;;;;;;;56.73;26.60;;;;;;;;;;4997882;28;20238;-59
2023/01/28 07:05:47;;;;;;;56.63;26.67;;;;;;;;;;4993219;28;20249;-56
2023/01/28 07:08:14;;;;;;;52.63;25.90;;;;;;;;;;4996729;28;20221;-59
2023/01/28 07:10:42;;;;;;;62.17;27.80;;;;;;;;;;4996681;28;20669;-57
2023/01/28 07:13:10;;;;;;;55.93;26.80;;;;;;;;;;4996380;28;20237;-58
2023/01/28 07:15:37;;;;;;;59.50;27.50;;;;;;;;;;4996587;28;20995;-59
2023/01/28 07:18:04;;;;;;;55.70;25.77;;;;;;;;;;4996712;28;20218;-59
2023/01/28 07:20:31;;;;;;;54.17;28.53;;;;;;;;;;4995885;28;20241;-57
2023/01/28 07:22:58;;;;;;;59.57;27.47;;;;;;;;;;4994998;28;20229;-59
2023/01/28 07:25:25;;;;;;;58.23;26.93;;;;;;;;;;4993555;28;20218;-59
2023/01/28 07:27:53;;;;;;;63.77;26.67;;;;;;;;;;4985064;28;20233;-58
2023/01/28 07:30:21;;;;;;;65.40;28.97;;;;;;;;;;4991730;28;20230;-58
2023/01/28 07:32:55;;;;;;;64.00;27.83;;;;;;;;;;4985975;28;20237;-60
2023/01/28 07:35:23;;;;;;;59.63;27.53;;;;;;;;;;4976339;28;20774;-59
2023/01/28 07:37:54;;;;;;;62.17;26.60;;;;;;;;;;4977446;28;20564;-59
2023/01/28 07:40:22;;;;;;;60.73;27.63;;;;;;;;;;4976982;28;20687;-58
2023/01/28 07:42:50;;;;;;;57.33;27.23;;;;;;;;;;4976246;28;20245;-57
2023/01/28 07:45:21;;;;;;;58.77;27.23;;;;;;;;;;4975066;28;20250;-57
2023/01/28 07:48:02;;;;;;;60.63;27.50;;;;;;;;;;4976240;28;20297;-59
2023/01/28 07:50:31;;;;;;;62.70;27.53;;;;;;;;;;4993905;28;20232;-60
2023/01/28 07:53:02;;;;;;;64.80;28.83;;;;;;;;;;4996237;28;20307;-59
2023/01/28 07:55:29;;;;;;;59.87;26.53;;;;;;;;;;5007710;28;20223;-58
2023/01/28 07:57:58;;;;;;;57.37;26.93;;;;;;;;;;4976417;28;20599;-57
2023/01/28 08:00:27;;;;;;;61.87;28.13;;;;;;;;;;4978036;28;20230;-59
2023/01/28 08:03:00;;;;;;;60.00;26.17;;;;;;;;;;4976703;28;20332;-57
2023/01/28 08:05:40;;;;;;;56.23;26.10;;;;;;;;;;4976508;28;20229;-59
2023/01/28 08:08:08;;;;;;;62.63;26.97;;;;;;;;;;4975353;28;20663;-58
2023/01/28 08:10:36;;;;;;;62.47;27.67;;;;;;;;;;4976936;28;20234;-59
2023/01/28 08:13:04;;;;;;;61.13;26.93;;;;;;;;;;4993871;28;20245;-59
2023/01/28 08:15:31;;;;;;;64.47;27.17;;;;;;;;;;4993291;28;20230;-59
2023/01/28 08:18:02;;;;;;;65.20;27.13;;;;;;;;;;4989155;28;20237;-59
2023/01/28 08:20:29;;;;;;;59.40;26.77;;;;;;;;;;4992568;28;20226;-58
2023/01/28 08:23:16;;;;;;;56.43;26.50;;;;;;;;;;4992980;28;20253;-57
2023/01/28 08:25:44;;;;;;;56.47;25.63;;;;;;;;;;4993254;28;20218;-60
2023/01/28 08:28:12;;;;;;;54.10;24.50;;;;;;;;;;4993387;28;20238;-59
2023/01/28 08:30:39;;;;;;;61.73;28.77;;;;;;;;;;4994816;28;20255;-58
2023/01/28 08:33:09;;;;;;;61.47;27.93;;;;;;;;;;4994166;28;20611;-59
2023/01/28 08:35:36;;;;;;;61.47;29.50;;;;;;;;;;4993815;28;20226;-55
2023/01/28 08:38:05;;;;;;;55.37;25.47;;;;;;;;;;4994369;28;20678;-59
2023/01/28 08:40:33;;;;;;;58.60;26.80;;;;;;;;;;4993690;28;20257;-59
2023/01/28 08:43:03;;;;;;;58.43;25.97;;;;;;;;;;4993988;28;20554;-59
2023/01/28 08:45:30;;;;;;;55.83;25.83;;;;;;;;;;4993596;28;20222;-57
2023/01/28 08:48:00;;;;;;;58.10;26.70;;;;;;;;;;4994657;28;20659;-58
2023/01/28 08:50:34;;;;;;;61.37;26.77;;;;;;;;;;4993811;28;20208;-57
2023/01/28 08:53:12;;;;;;;56.93;26.13;;;;;;;;;;4990979;28;20202;-59
2023/01/28 08:55:39;;;;;;;56.00;26.40;;;;;;;;;;4994909;28;20193;-58
2023/01/28 08:58:10;;;;;;;60.83;24.90;;;;;;;;;;4994872;28;20224;-59
2023/01/28 09:00:38;;;;;;;60.17;25.57;;;;;;;;;;4994785;28;20268;-58
2023/01/28 09:03:06;;;;;;;58.97;24.93;;;;;;;;;;4994443;28;20213;-58
2023/01/28 09:05:34;;;;;;;53.20;24.13;;;;;;;;;;4994562;28;20230;-58
2023/01/28 09:08:10;;;;;;;54.57;24.77;;;;;;;;;;4994774;28;20218;-59
2023/01/28 09:10:37;;;;;;;62.60;24.37;;;;;;;;;;4999137;28;20245;-58
2023/01/28 09:13:10;;;;;;;54.47;24.10;;;;;;;;;;4986476;28;20231;-57
2023/01/28 09:15:37;;;;;;;53.83;24.87;;;;;;;;;;4988503;28;20272;-60
2023/01/28 09:18:05;;;;;;;56.93;25.40;;;;;;;;;;4994125;28;20575;-56
2023/01/28 09:20:32;;;;;;;54.83;23.97;;;;;;;;;;4994471;28;20244;-59
2023/01/28 09:23:00;;;;;;;60.73;25.83;;;;;;;;;;4994175;28;20234;-58
2023/01/28 09:25:28;;;;;;;55.70;24.87;;;;;;;;;;4990684;28;20564;-59
2023/01/28 09:27:56;;;;;;;58.00;24.40;;;;;;;;;;4989944;28;20234;-60
2023/01/28 09:30:24;;;;;;;58.07;25.37;;;;;;;;;;4986762;28;20675;-58
2023/01/28 09:32:52;;;;;;;69.23;27.43;;;;;;;;;;4979642;28;20226;-58
2023/01/28 09:35:19;;;;;;;60.17;25.57;;;;;;;;;;4974785;28;20293;-59
2023/01/28 09:37:47;;;;;;;55.13;23.17;;;;;;;;;;4974983;28;20616;-59
2023/01/28 09:40:16;;;;;;;54.63;23.37;;;;;;;;;;4974399;28;20593;-58
2023/01/28 09:43:09;;;;;;;62.20;23.67;;;;;;;;;;4974659;28;20227;-59
2023/01/28 09:45:37;;;;;;;59.60;23.97;;;;;;;;;;4998356;28;20233;-59
2023/01/28 09:48:11;;;;;;;60.43;24.13;;;;;;;;;;4995510;28;20234;-59
2023/01/28 09:50:41;;;;;;;58.30;24.60;;;;;;;;;;4978723;28;20325;-59
2023/01/28 09:53:23;;;;;;;60.17;24.47;;;;;;;;;;4986677;28;20532;-59
2023/01/28 09:55:57;;;;;;;51.83;22.67;;;;;;;;;;4998136;28;20261;-60
2023/01/28 09:58:24;;;;;;;55.33;24.40;;;;;;;;;;4997668;28;20229;-59
2023/01/28 10:01:03;;;;;;;57.30;23.47;;;;;;;;;;4998572;28;20245;-59
2023/01/28 10:04:15;;;;;;;56.67;23.77;;;;;;;;;;4993223;28;20234;-59
2023/01/28 10:06:53;;;;;;;55.03;23.73;;;;;;;;;;4960225;28;20242;-60
2023/01/28 10:09:37;;;;;;;50.03;23.27;;;;;;;;;;4967158;28;20231;-60
2023/01/28 10:12:12;;;;;;;49.80;21.60;;;;;;;;;;4976267;28;20296;-59
2023/01/28 10:15:29;;;;;;;56.47;24.23;;;;;;;;;;4977059;28;20249;-59
2023/01/28 10:18:00;;;;;;;55.83;22.13;;;;;;;;;;4957238;28;20231;-60
2023/01/28 10:20:48;;;;;;;52.37;23.13;;;;;;;;;;4957485;29;20263;-60
2023/01/28 10:23:43;;;;;;;51.17;23.30;;;;;;;;;;4957328;28;20227;-60
2023/01/28 10:26:19;;;;;;;55.80;23.70;;;;;;;;;;4954805;29;20231;-60
2023/01/28 10:28:51;;;;;;;56.23;22.27;;;;;;;;;;4938017;29;20400;-60
2023/01/28 10:31:19;;;;;;;53.20;22.77;;;;;;;;;;4937777;29;20763;-60
2023/01/28 10:33:46;;;;;;;51.97;23.10;;;;;;;;;;4922008;29;20683;-60
2023/01/28 10:36:14;;;;;;;50.03;23.73;;;;;;;;;;4938119;29;20549;-61
2023/01/28 10:38:41;;;;;;;52.93;22.47;;;;;;;;;;4937530;29;20236;-57
2023/01/28 10:41:10;;;;;;;51.07;23.37;;;;;;;;;;4950114;28;21969;-60
2023/01/28 10:43:39;;;;;;;50.43;22.33;;;;;;;;;;4939825;29;20339;-59
2023/01/28 10:46:12;;;;;;;47.27;21.27;;;;;;;;;;4956070;28;20231;-58
2023/01/28 10:48:45;;;;;;;49.87;20.43;;;;;;;;;;4956524;28;20302;-60
2023/01/28 10:51:14;;;;;;;52.00;23.07;;;;;;;;;;4970740;28;20226;-59
2023/01/28 10:53:42;;;;;;;46.03;20.90;;;;;;;;;;5012734;28;20647;-60
2023/01/28 10:56:13;;;;;;;50.67;21.27;;;;;;;;;;4995502;28;20228;-60
2023/01/28 10:59:03;;;;;;;46.83;21.50;;;;;;;;;;4996875;28;20607;-60
2023/01/28 11:01:52;;;;;;;49.60;21.97;;;;;;;;;;4997331;28;20237;-60
2023/01/28 11:04:30;;;;;;;45.37;20.57;;;;;;;;;;4994835;28;20598;-60
2023/01/28 11:07:13;;;;;;;49.53;21.57;;;;;;;;;;4997639;28;20263;-55
2023/01/28 11:09:44;;;;;;;45.83;21.90;;;;;;;;;;4995118;28;20237;-59
2023/01/28 11:12:24;;;;;;;46.20;20.57;;;;;;;;;;4996032;28;20226;-59
2023/01/28 11:14:53;;;;;;;46.10;21.00;;;;;;;;;;4997296;28;20678;-60
2023/01/28 11:17:23;;;;;;;46.73;20.13;;;;;;;;;;4996961;28;20241;-60
2023/01/28 11:19:54;;;;;;;50.63;21.50;;;;;;;;;;4979909;28;20236;-59
2023/01/28 11:22:23;;;;;;;49.00;19.80;;;;;;;;;;5012651;28;20300;-60
2023/01/28 11:24:50;;;;;;;47.33;20.07;;;;;;;;;;5011436;28;20296;-60
2023/01/28 11:27:24;;;;;;;44.17;19.47;;;;;;;;;;4996433;28;20539;-61
2023/01/28 11:29:51;;;;;;;54.03;21.20;;;;;;;;;;5000114;28;20602;-59
2023/01/28 11:32:21;;;;;;;46.93;19.30;;;;;;;;;;5011256;28;20266;-60
2023/01/28 11:34:51;;;;;;;48.93;21.23;;;;;;;;;;4976162;28;20227;-60
2023/01/28 11:37:21;;;;;;;53.03;21.17;;;;;;;;;;4977270;28;20241;-60
2023/01/28 11:39:48;;;;;;;51.53;21.10;;;;;;;;;;4979286;28;20543;-60
2023/01/28 11:42:20;;;;;;;60.37;22.07;;;;;;;;;;4991744;28;20242;-60
2023/01/28 11:44:48;;;;;;;56.57;22.20;;;;;;;;;;4990795;28;20222;-60
2023/01/28 11:47:29;;;;;;;52.73;21.10;;;;;;;;;;4995928;28;20226;-58
2023/01/28 11:50:04;;;;;;;54.77;21.37;;;;;;;;;;4996108;28;20217;-58
2023/01/28 11:52:35;;;;;;;54.33;20.83;;;;;;;;;;4986776;28;20556;-58
2023/01/28 11:55:22;;;;;;;47.17;19.63;;;;;;;;;;4974662;28;20220;-59
2023/01/28 11:58:02;;;;;;;49.03;19.97;;;;;;;;;;4993361;28;20210;-60
2023/01/28 12:00:35;;;;;;;48.23;20.57;;;;;;;;;;4995318;28;20615;-59
2023/01/28 12:03:26;;;;;;;49.37;18.20;;;;;;;;;;5000249;28;20271;-59
2023/01/28 12:06:09;;;;;;;45.60;18.50;;;;;;;;;;4999657;28;20206;-58
2023/01/28 12:08:39;;;;;;;49.23;21.47;;;;;;;;;;5010485;28;20265;-60
2023/01/28 12:14:46;;;;;;;48.47;19.23;;;;;;;;;;5001579;28;20209;-60
2023/01/28 12:17:34;;;;;;;42.30;18.47;;;;;;;;;;5014204;28;20197;-59
2023/01/28 12:20:20;;;;;;;47.73;18.83;;;;;;;;;;4994949;28;20206;-59
2023/01/28 12:23:08;;;;;;;52.23;20.37;;;;;;;;;;4976821;28;20226;-58
2023/01/28 12:25:46;;;;;;;50.87;20.80;;;;;;;;;;5001496;28;20242;-59
2023/01/28 12:28:31;;;;;;;46.77;20.30;;;;;;;;;;4992656;28;20335;-58
2023/01/28 12:31:27;;;;;;;55.03;21.47;;;;;;;;;;4993359;28;20280;-57
2023/01/28 12:34:00;;;;;;;48.90;20.73;;;;;;;;;;4989545;28;20694;-60
2023/01/28 12:36:34;;;;;;;53.50;21.50;;;;;;;;;;4981858;28;20575;-60
2023/01/28 12:39:19;;;;;;;55.43;21.30;;;;;;;;;;4987532;28;20313;-60
2023/01/28 12:41:50;;;;;;;53.93;22.10;;;;;;;;;;4995537;28;20249;-59
2023/01/28 12:44:25;;;;;;;53.60;20.87;;;;;;;;;;4994335;28;20238;-57
2023/01/28 12:46:56;;;;;;;53.63;22.23;;;;;;;;;;4994180;28;20790;-60
2023/01/28 12:49:30;;;;;;;54.83;22.80;;;;;;;;;;4994060;28;20658;-60
2023/01/28 12:52:00;;;;;;;50.77;21.83;;;;;;;;;;4988348;28;20539;-60
2023/01/28 12:54:39;;;;;;;47.77;20.63;;;;;;;;;;4982564;28;20237;-59
2023/01/28 12:57:10;;;;;;;51.73;21.70;;;;;;;;;;4993883;28;20234;-59
2023/01/28 12:59:43;;;;;;;54.90;21.97;;;;;;;;;;4993976;28;20236;-59
2023/01/28 13:02:10;;;;;;;49.40;21.37;;;;;;;;;;4993060;28;20599;-60
2023/01/28 13:04:50;;;;;;;46.93;19.43;;;;;;;;;;4992410;28;20233;-55
2023/01/28 13:07:27;;;;;;;44.40;18.90;;;;;;;;;;5006938;28;20241;-60
2023/01/28 13:10:19;;;;;;;50.93;20.67;;;;;;;;;;4992315;28;20229;-61
2023/01/28 13:12:47;;;;;;;42.07;18.50;;;;;;;;;;4990306;28;20229;-58
2023/01/28 13:15:16;;;;;;;40.73;17.13;;;;;;;;;;4993491;28;20233;-59
2023/01/28 13:18:03;;;;;;;40.23;17.67;;;;;;;;;;4994367;28;20287;-60
2023/01/28 13:20:47;;;;;;;40.33;17.63;;;;;;;;;;4993955;28;20222;-58
2023/01/28 13:23:45;;;;;;;37.27;17.20;;;;;;;;;;4993005;28;20557;-60
2023/01/28 13:26:18;;;;;;;45.37;17.67;;;;;;;;;;4972447;28;20821;-58
2023/01/28 13:28:48;;;;;;;48.40;17.03;;;;;;;;;;4965252;28;20227;-58
2023/01/28 13:31:17;;;;;;;38.87;16.37;;;;;;;;;;4953211;28;20702;-58
2023/01/28 13:33:53;;;;;;;37.60;16.33;;;;;;;;;;4937369;29;20227;-60
2023/01/28 13:36:30;;;;;;;38.00;16.93;;;;;;;;;;4952803;29;20246;-60
2023/01/28 13:39:15;;;;;;;41.80;17.50;;;;;;;;;;4953200;28;20230;-59
2023/01/28 13:41:47;;;;;;;38.97;16.03;;;;;;;;;;4953591;29;20231;-60
2023/01/28 13:44:29;;;;;;;35.23;16.27;;;;;;;;;;4953132;29;20220;-59
2023/01/28 13:47:14;;;;;;;36.33;15.80;;;;;;;;;;4953058;28;20223;-60
2023/01/28 13:50:23;;;;;;;36.80;16.47;;;;;;;;;;4961926;28;20242;-59
2023/01/28 13:52:55;;;;;;;40.73;16.53;;;;;;;;;;4952828;28;20237;-60
2023/01/28 13:55:34;;;;;;;38.37;15.87;;;;;;;;;;4956150;28;20226;-60
2023/01/28 13:58:42;;;;;;;34.53;16.27;;;;;;;;;;4957526;28;20317;-59
2023/01/28 14:01:15;;;;;;;41.63;15.63;;;;;;;;;;4956728;28;20604;-59
2023/01/28 14:03:48;;;;;;;41.97;16.67;;;;;;;;;;4991788;28;20246;-58
2023/01/28 14:06:38;;;;;;;37.80;16.60;;;;;;;;;;4991303;28;20611;-59
2023/01/28 14:09:30;;;;;;;36.13;15.57;;;;;;;;;;5008804;28;20560;-60
2023/01/28 14:12:36;;;;;;;37.70;16.70;;;;;;;;;;4992683;28;20238;-59
2023/01/28 14:15:23;;;;;;;37.33;15.50;;;;;;;;;;4987913;28;20230;-60
2023/01/28 14:17:53;;;;;;;33.70;13.97;;;;;;;;;;4993226;28;21059;-58
2023/01/28 14:20:25;;;;;;;30.80;14.17;;;;;;;;;;4982124;28;20214;-59
2023/01/28 14:23:04;;;;;;;37.07;14.83;;;;;;;;;;4985669;28;20237;-60
2023/01/28 14:25:47;;;;;;;35.33;14.87;;;;;;;;;;4992300;28;20245;-59
2023/01/28 14:28:27;;;;;;;32.00;14.53;;;;;;;;;;4975696;28;20255;-58
2023/01/28 14:30:58;;;;;;;35.07;14.83;;;;;;;;;;4993415;28;20230;-61
2023/01/28 14:33:26;;;;;;;31.40;14.37;;;;;;;;;;4993462;28;20238;-60
2023/01/28 14:35:54;;;;;;;32.30;14.77;;;;;;;;;;4996308;28;20627;-59
2023/01/28 14:38:23;;;;;;;34.43;15.33;;;;;;;;;;4995758;28;20300;-58
2023/01/28 14:40:53;;;;;;;32.70;15.80;;;;;;;;;;4997147;28;20226;-60
2023/01/28 14:43:23;;;;;;;32.03;15.30;;;;;;;;;;4995391;28;20245;-60
2023/01/28 14:46:00;;;;;;;41.60;16.40;;;;;;;;;;4983992;28;20557;-60
2023/01/28 14:48:39;;;;;;;37.43;15.83;;;;;;;;;;5006569;28;20581;-60
2023/01/28 14:51:09;;;;;;;36.23;17.50;;;;;;;;;;4997263;28;20265;-60
2023/01/28 14:54:11;;;;;;;36.00;16.60;;;;;;;;;;4997307;28;20237;-60
2023/01/28 14:57:16;;;;;;;37.57;15.50;;;;;;;;;;4997875;28;20315;-60
2023/01/28 14:59:43;;;;;;;36.67;14.83;;;;;;;;;;4997279;28;20230;-60
2023/01/28 15:02:22;;;;;;;36.43;14.93;;;;;;;;;;4997307;28;20248;-60
2023/01/28 15:04:51;;;;;;;32.97;14.80;;;;;;;;;;4996747;28;20238;-60
2023/01/28 15:07:23;;;;;;;34.03;16.00;;;;;;;;;;4978768;28;20726;-60
2023/01/28 15:10:13;;;;;;;34.80;15.13;;;;;;;;;;4977658;28;20246;-62
2023/01/28 15:12:43;;;;;;;31.93;15.70;;;;;;;;;;4976525;28;20226;-58
2023/01/28 15:15:18;;;;;;;34.60;15.73;;;;;;;;;;4976970;28;20289;-60
2023/01/28 15:17:46;;;;;;;39.60;18.03;;;;;;;;;;4995705;28;20558;-61
2023/01/28 15:20:18;;;;;;;34.50;16.50;;;;;;;;;;4990008;28;20218;-59
2023/01/28 15:22:46;;;;;;;34.70;16.10;;;;;;;;;;4995661;28;20329;-61
2023/01/28 15:25:19;;;;;;;39.53;16.13;;;;;;;;;;4995296;28;20229;-59
2023/01/28 15:27:47;;;;;;;34.57;15.07;;;;;;;;;;4996221;28;20226;-60
2023/01/28 15:30:20;;;;;;;30.37;15.47;;;;;;;;;;4995644;28;20241;-59